sensor_id;sensor_type;location;lat;lon;timestamp;P1;durP1;ratioP1;P2;durP2;ratioP2
72645;SDS011;60687;53.876;10.674;2023-04-03T00:01:31;6.60;;;2.45;;
72645;SDS011;60687;53.876;10.674;2023-04-03T00:11:37;6.30;;;2.17;;
72645;SDS011;60687;53.876;10.674;2023-04-03T00:21:39;9.13;;;3.27;;
72645;SDS011;60687;53.876;10.674;2023-04-03T00:31:43;8.15;;;2.78;;
72645;SDS011;60687;53.876;10.674;2023-04-03T00:41:46;8.07;;;2.70;;
72645;SDS011;60687;53.876;10.674;2023-04-03T00:51:49;6.60;;;2.50;;
72645;SDS011;60687;53.876;10.674;2023-04-03T01:01:52;7.93;;;2.90;;
72645;SDS011;60687;53.876;10.674;2023-04-03T01:22:26;7.22;;;3.05;;
72645;SDS011;60687;53.876;10.674;2023-04-03T01:32:39;6.68;;;2.90;;
72645;SDS011;60687;53.876;10.674;2023-04-03T01:42:41;6.97;;;2.60;;
72645;SDS011;60687;53.876;10.674;2023-04-03T01:52:45;9.83;;;3.03;;
72645;SDS011;60687;53.876;10.674;2023-04-03T02:02:48;7.50;;;2.75;;
72645;SDS011;60687;53.876;10.674;2023-04-03T02:12:52;6.30;;;2.73;;
72645;SDS011;60687;53.876;10.674;2023-04-03T02:22:54;7.07;;;2.03;;
72645;SDS011;60687;53.876;10.674;2023-04-03T02:33:00;7.43;;;2.60;;
72645;SDS011;60687;53.876;10.674;2023-04-03T02:43:03;5.77;;;2.33;;
72645;SDS011;60687;53.876;10.674;2023-04-03T02:53:07;7.33;;;2.70;;
72645;SDS011;60687;53.876;10.674;2023-04-03T03:03:10;7.60;;;3.00;;
72645;SDS011;60687;53.876;10.674;2023-04-03T03:13:15;7.75;;;3.00;;
72645;SDS011;60687;53.876;10.674;2023-04-03T03:23:17;7.30;;;3.30;;
72645;SDS011;60687;53.876;10.674;2023-04-03T03:33:21;6.57;;;2.43;;
72645;SDS011;60687;53.876;10.674;2023-04-03T03:43:24;8.05;;;2.60;;
72645;SDS011;60687;53.876;10.674;2023-04-03T03:53:29;7.57;;;2.80;;
72645;SDS011;60687;53.876;10.674;2023-04-03T04:03:37;6.23;;;2.37;;
72645;SDS011;60687;53.876;10.674;2023-04-03T04:13:43;9.50;;;3.17;;
72645;SDS011;60687;53.876;10.674;2023-04-03T04:23:47;6.20;;;2.60;;
72645;SDS011;60687;53.876;10.674;2023-04-03T04:33:52;6.30;;;2.90;;
72645;SDS011;60687;53.876;10.674;2023-04-03T04:43:55;9.27;;;3.00;;
72645;SDS011;60687;53.876;10.674;2023-04-03T04:54:01;6.28;;;2.97;;
72645;SDS011;60687;53.876;10.674;2023-04-03T05:04:06;8.13;;;3.30;;
72645;SDS011;60687;53.876;10.674;2023-04-03T05:14:11;6.83;;;2.90;;
72645;SDS011;60687;53.876;10.674;2023-04-03T05:24:14;7.55;;;2.63;;
72645;SDS011;60687;53.876;10.674;2023-04-03T05:34:19;7.57;;;2.80;;
72645;SDS011;60687;53.876;10.674;2023-04-03T05:44:24;7.50;;;2.90;;
72645;SDS011;60687;53.876;10.674;2023-04-03T05:54:29;7.43;;;3.38;;
72645;SDS011;60687;53.876;10.674;2023-04-03T06:04:45;8.97;;;2.90;;
72645;SDS011;60687;53.876;10.674;2023-04-03T06:14:49;7.50;;;3.10;;
72645;SDS011;60687;53.876;10.674;2023-04-03T06:24:52;9.48;;;3.30;;
72645;SDS011;60687;53.876;10.674;2023-04-03T06:34:56;9.23;;;3.40;;
72645;SDS011;60687;53.876;10.674;2023-04-03T06:44:59;6.93;;;2.60;;
72645;SDS011;60687;53.876;10.674;2023-04-03T06:55:03;10.20;;;2.97;;
72645;SDS011;60687;53.876;10.674;2023-04-03T07:05:06;8.88;;;2.42;;
72645;SDS011;60687;53.876;10.674;2023-04-03T07:15:10;7.83;;;2.30;;
72645;SDS011;60687;53.876;10.674;2023-04-03T07:25:14;6.30;;;2.13;;
72645;SDS011;60687;53.876;10.674;2023-04-03T07:35:19;5.55;;;1.92;;
72645;SDS011;60687;53.876;10.674;2023-04-03T07:45:23;6.90;;;1.93;;
72645;SDS011;60687;53.876;10.674;2023-04-03T07:55:28;5.70;;;1.97;;
72645;SDS011;60687;53.876;10.674;2023-04-03T08:05:30;5.63;;;1.88;;
72645;SDS011;60687;53.876;10.674;2023-04-03T08:15:39;8.18;;;1.58;;
72645;SDS011;60687;53.876;10.674;2023-04-03T08:25:41;6.60;;;1.97;;
72645;SDS011;60687;53.876;10.674;2023-04-03T08:35:45;5.03;;;1.70;;
72645;SDS011;60687;53.876;10.674;2023-04-03T08:45:49;4.88;;;1.42;;
72645;SDS011;60687;53.876;10.674;2023-04-03T08:55:56;4.80;;;1.40;;
72645;SDS011;60687;53.876;10.674;2023-04-03T09:06:02;5.97;;;1.43;;
72645;SDS011;60687;53.876;10.674;2023-04-03T09:16:14;7.93;;;2.30;;
72645;SDS011;60687;53.876;10.674;2023-04-03T09:26:25;4.97;;;1.30;;
72645;SDS011;60687;53.876;10.674;2023-04-03T09:36:38;4.00;;;1.20;;
72645;SDS011;60687;53.876;10.674;2023-04-03T09:46:45;4.50;;;1.60;;
72645;SDS011;60687;53.876;10.674;2023-04-03T09:56:51;6.85;;;1.40;;
72645;SDS011;60687;53.876;10.674;2023-04-03T10:06:57;5.50;;;1.70;;
72645;SDS011;60687;53.876;10.674;2023-04-03T10:17:09;5.10;;;1.50;;
72645;SDS011;60687;53.876;10.674;2023-04-03T10:27:22;4.22;;;1.10;;
72645;SDS011;60687;53.876;10.674;2023-04-03T10:37:38;3.43;;;1.23;;
72645;SDS011;60687;53.876;10.674;2023-04-03T10:47:56;3.87;;;1.10;;
72645;SDS011;60687;53.876;10.674;2023-04-03T10:58:07;4.35;;;1.02;;
72645;SDS011;60687;53.876;10.674;2023-04-03T11:08:17;4.60;;;1.20;;
72645;SDS011;60687;53.876;10.674;2023-04-03T11:18:31;5.43;;;1.50;;
72645;SDS011;60687;53.876;10.674;2023-04-03T11:28:37;5.95;;;1.77;;
72645;SDS011;60687;53.876;10.674;2023-04-03T11:38:43;4.35;;;1.40;;
72645;SDS011;60687;53.876;10.674;2023-04-03T11:48:48;5.30;;;1.53;;
72645;SDS011;60687;53.876;10.674;2023-04-03T12:09:27;4.43;;;1.35;;
72645;SDS011;60687;53.876;10.674;2023-04-03T12:19:35;6.13;;;1.67;;
72645;SDS011;60687;53.876;10.674;2023-04-03T12:29:45;4.27;;;1.23;;
72645;SDS011;60687;53.876;10.674;2023-04-03T12:39:54;4.40;;;1.20;;
72645;SDS011;60687;53.876;10.674;2023-04-03T12:50:04;5.13;;;1.30;;
72645;SDS011;60687;53.876;10.674;2023-04-03T13:00:28;4.87;;;1.43;;
72645;SDS011;60687;53.876;10.674;2023-04-03T13:10:42;6.15;;;1.92;;
72645;SDS011;60687;53.876;10.674;2023-04-03T13:20:51;6.55;;;1.80;;
72645;SDS011;60687;53.876;10.674;2023-04-03T13:31:03;4.53;;;1.50;;
72645;SDS011;60687;53.876;10.674;2023-04-03T13:41:23;4.63;;;1.70;;
72645;SDS011;60687;53.876;10.674;2023-04-03T13:51:27;6.85;;;2.00;;
72645;SDS011;60687;53.876;10.674;2023-04-03T14:01:40;5.13;;;1.80;;
72645;SDS011;60687;53.876;10.674;2023-04-03T14:11:45;4.70;;;1.60;;
72645;SDS011;60687;53.876;10.674;2023-04-03T14:21:50;5.43;;;1.67;;
72645;SDS011;60687;53.876;10.674;2023-04-03T14:31:53;5.47;;;1.67;;
72645;SDS011;60687;53.876;10.674;2023-04-03T14:41:57;7.50;;;1.87;;
72645;SDS011;60687;53.876;10.674;2023-04-03T14:52:00;6.88;;;1.98;;
72645;SDS011;60687;53.876;10.674;2023-04-03T15:02:08;5.95;;;2.03;;
72645;SDS011;60687;53.876;10.674;2023-04-03T15:12:25;7.70;;;2.27;;
72645;SDS011;60687;53.876;10.674;2023-04-03T15:22:29;6.57;;;1.90;;
72645;SDS011;60687;53.876;10.674;2023-04-03T15:32:33;7.35;;;1.98;;
72645;SDS011;60687;53.876;10.674;2023-04-03T15:42:37;6.17;;;2.23;;
72645;SDS011;60687;53.876;10.674;2023-04-03T15:52:40;6.03;;;2.00;;
72645;SDS011;60687;53.876;10.674;2023-04-03T16:02:44;7.75;;;2.00;;
72645;SDS011;60687;53.876;10.674;2023-04-03T16:12:47;11.27;;;4.37;;
72645;SDS011;60687;53.876;10.674;2023-04-03T16:22:52;9.07;;;4.47;;
72645;SDS011;60687;53.876;10.674;2023-04-03T16:32:56;6.65;;;2.28;;
72645;SDS011;60687;53.876;10.674;2023-04-03T16:43:02;5.13;;;2.03;;
72645;SDS011;60687;53.876;10.674;2023-04-03T16:53:05;6.37;;;2.07;;
72645;SDS011;60687;53.876;10.674;2023-04-03T17:03:11;6.50;;;2.03;;
72645;SDS011;60687;53.876;10.674;2023-04-03T17:13:13;6.10;;;1.63;;
72645;SDS011;60687;53.876;10.674;2023-04-03T17:23:17;5.17;;;1.93;;
72645;SDS011;60687;53.876;10.674;2023-04-03T17:33:20;4.80;;;1.53;;
72645;SDS011;60687;53.876;10.674;2023-04-03T17:43:24;8.18;;;2.30;;
72645;SDS011;60687;53.876;10.674;2023-04-03T17:53:26;4.73;;;1.70;;
72645;SDS011;60687;53.876;10.674;2023-04-03T18:03:33;7.00;;;2.23;;
72645;SDS011;60687;53.876;10.674;2023-04-03T18:13:36;4.28;;;1.70;;
72645;SDS011;60687;53.876;10.674;2023-04-03T18:23:40;5.13;;;1.92;;
72645;SDS011;60687;53.876;10.674;2023-04-03T18:33:48;5.60;;;2.03;;
72645;SDS011;60687;53.876;10.674;2023-04-03T18:43:55;6.90;;;2.30;;
72645;SDS011;60687;53.876;10.674;2023-04-03T18:54:00;6.80;;;2.30;;
72645;SDS011;60687;53.876;10.674;2023-04-03T19:04:06;8.87;;;2.33;;
72645;SDS011;60687;53.876;10.674;2023-04-03T19:14:09;5.57;;;1.93;;
72645;SDS011;60687;53.876;10.674;2023-04-03T19:24:13;5.80;;;2.35;;
72645;SDS011;60687;53.876;10.674;2023-04-03T19:34:16;6.33;;;2.37;;
72645;SDS011;60687;53.876;10.674;2023-04-03T19:44:20;12.13;;;4.10;;
72645;SDS011;60687;53.876;10.674;2023-04-03T19:54:23;6.32;;;2.50;;
72645;SDS011;60687;53.876;10.674;2023-04-03T20:04:27;7.25;;;2.67;;
72645;SDS011;60687;53.876;10.674;2023-04-03T20:14:29;7.53;;;2.50;;
72645;SDS011;60687;53.876;10.674;2023-04-03T20:24:33;6.53;;;2.60;;
72645;SDS011;60687;53.876;10.674;2023-04-03T20:34:36;8.10;;;2.75;;
72645;SDS011;60687;53.876;10.674;2023-04-03T20:44:40;9.80;;;2.87;;
72645;SDS011;60687;53.876;10.674;2023-04-03T20:54:45;8.67;;;2.77;;
72645;SDS011;60687;53.876;10.674;2023-04-03T21:04:51;7.82;;;3.25;;
72645;SDS011;60687;53.876;10.674;2023-04-03T21:25:36;7.83;;;2.77;;
72645;SDS011;60687;53.876;10.674;2023-04-03T21:35:38;8.25;;;3.20;;
72645;SDS011;60687;53.876;10.674;2023-04-03T21:45:43;9.20;;;4.10;;
72645;SDS011;60687;53.876;10.674;2023-04-03T21:55:52;10.23;;;4.17;;
72645;SDS011;60687;53.876;10.674;2023-04-03T22:05:58;7.10;;;3.40;;
72645;SDS011;60687;53.876;10.674;2023-04-03T22:16:00;7.03;;;2.90;;
72645;SDS011;60687;53.876;10.674;2023-04-03T22:26:07;8.17;;;4.03;;
72645;SDS011;60687;53.876;10.674;2023-04-03T22:36:14;8.97;;;3.40;;
72645;SDS011;60687;53.876;10.674;2023-04-03T22:46:18;8.95;;;3.13;;
72645;SDS011;60687;53.876;10.674;2023-04-03T22:56:21;9.93;;;3.40;;
72645;SDS011;60687;53.876;10.674;2023-04-03T23:06:24;9.30;;;4.20;;
72645;SDS011;60687;53.876;10.674;2023-04-03T23:16:27;10.65;;;4.78;;
72645;SDS011;60687;53.876;10.674;2023-04-03T23:26:31;8.65;;;4.25;;
72645;SDS011;60687;53.876;10.674;2023-04-03T23:36:33;9.70;;;3.97;;
72645;SDS011;60687;53.876;10.674;2023-04-03T23:46:37;8.17;;;3.83;;
72645;SDS011;60687;53.876;10.674;2023-04-03T23:56:40;9.25;;;3.92;;
